sensor_id;sensor_type;location;lat;lon;timestamp;P1;durP1;ratioP1;P2;durP2;ratioP2
52942;SDS011;38809;53.300;6.614;2023-04-29T00:01:48;28.47;;;16.37;;
52942;SDS011;38809;53.300;6.614;2023-04-29T00:04:14;27.95;;;16.38;;
52942;SDS011;38809;53.300;6.614;2023-04-29T00:06:40;28.33;;;17.07;;
52942;SDS011;38809;53.300;6.614;2023-04-29T00:09:05;28.43;;;17.07;;
52942;SDS011;38809;53.300;6.614;2023-04-29T00:11:31;29.10;;;17.23;;
52942;SDS011;38809;53.300;6.614;2023-04-29T00:13:57;25.10;;;16.53;;
52942;SDS011;38809;53.300;6.614;2023-04-29T00:16:23;26.92;;;16.23;;
52942;SDS011;38809;53.300;6.614;2023-04-29T00:18:48;24.93;;;15.07;;
52942;SDS011;38809;53.300;6.614;2023-04-29T00:21:14;22.55;;;14.15;;
52942;SDS011;38809;53.300;6.614;2023-04-29T00:23:40;26.40;;;14.50;;
52942;SDS011;38809;53.300;6.614;2023-04-29T00:26:05;21.77;;;14.33;;
52942;SDS011;38809;53.300;6.614;2023-04-29T00:28:31;23.77;;;15.30;;
52942;SDS011;38809;53.300;6.614;2023-04-29T00:30:57;24.03;;;15.10;;
52942;SDS011;38809;53.300;6.614;2023-04-29T00:33:22;24.10;;;14.17;;
52942;SDS011;38809;53.300;6.614;2023-04-29T00:35:48;25.92;;;13.85;;
52942;SDS011;38809;53.300;6.614;2023-04-29T00:38:14;25.05;;;13.35;;
52942;SDS011;38809;53.300;6.614;2023-04-29T00:40:40;19.53;;;12.13;;
52942;SDS011;38809;53.300;6.614;2023-04-29T00:43:07;20.25;;;13.05;;
52942;SDS011;38809;53.300;6.614;2023-04-29T00:45:33;20.25;;;13.48;;
52942;SDS011;38809;53.300;6.614;2023-04-29T00:47:58;19.13;;;11.90;;
52942;SDS011;38809;53.300;6.614;2023-04-29T00:50:24;22.97;;;13.43;;
52942;SDS011;38809;53.300;6.614;2023-04-29T00:52:50;25.73;;;14.23;;
52942;SDS011;38809;53.300;6.614;2023-04-29T00:57:44;17.80;;;12.43;;
52942;SDS011;38809;53.300;6.614;2023-04-29T01:00:12;22.90;;;13.05;;
52942;SDS011;38809;53.300;6.614;2023-04-29T01:02:40;21.58;;;12.80;;
52942;SDS011;38809;53.300;6.614;2023-04-29T01:05:06;20.90;;;12.20;;
52942;SDS011;38809;53.300;6.614;2023-04-29T01:07:33;18.52;;;12.35;;
52942;SDS011;38809;53.300;6.614;2023-04-29T01:12:49;22.17;;;13.77;;
52942;SDS011;38809;53.300;6.614;2023-04-29T01:18:35;23.45;;;14.70;;
52942;SDS011;38809;53.300;6.614;2023-04-29T01:21:05;24.15;;;14.50;;
52942;SDS011;38809;53.300;6.614;2023-04-29T01:23:30;24.25;;;13.13;;
52942;SDS011;38809;53.300;6.614;2023-04-29T01:25:56;21.70;;;13.80;;
52942;SDS011;38809;53.300;6.614;2023-04-29T01:32:22;24.67;;;14.30;;
52942;SDS011;38809;53.300;6.614;2023-04-29T01:35:16;20.88;;;13.77;;
52942;SDS011;38809;53.300;6.614;2023-04-29T01:37:19;20.83;;;13.35;;
52942;SDS011;38809;53.300;6.614;2023-04-29T01:40:15;20.75;;;12.85;;
52942;SDS011;38809;53.300;6.614;2023-04-29T01:42:45;23.83;;;13.00;;
52942;SDS011;38809;53.300;6.614;2023-04-29T01:45:19;19.25;;;11.90;;
52942;SDS011;38809;53.300;6.614;2023-04-29T01:47:46;18.67;;;12.50;;
52942;SDS011;38809;53.300;6.614;2023-04-29T01:50:14;22.67;;;12.85;;
52942;SDS011;38809;53.300;6.614;2023-04-29T01:52:40;19.90;;;13.05;;
52942;SDS011;38809;53.300;6.614;2023-04-29T01:55:06;29.33;;;14.53;;
52942;SDS011;38809;53.300;6.614;2023-04-29T01:57:32;23.17;;;13.73;;
52942;SDS011;38809;53.300;6.614;2023-04-29T01:59:58;21.52;;;12.90;;
52942;SDS011;38809;53.300;6.614;2023-04-29T02:02:24;26.07;;;13.30;;
52942;SDS011;38809;53.300;6.614;2023-04-29T02:04:49;22.23;;;13.80;;
52942;SDS011;38809;53.300;6.614;2023-04-29T02:07:15;21.48;;;12.48;;
52942;SDS011;38809;53.300;6.614;2023-04-29T02:09:41;20.25;;;11.82;;
52942;SDS011;38809;53.300;6.614;2023-04-29T02:12:07;17.20;;;11.07;;
52942;SDS011;38809;53.300;6.614;2023-04-29T02:14:33;21.20;;;11.48;;
52942;SDS011;38809;53.300;6.614;2023-04-29T02:16:58;20.30;;;11.13;;
52942;SDS011;38809;53.300;6.614;2023-04-29T02:19:24;21.27;;;11.32;;
52942;SDS011;38809;53.300;6.614;2023-04-29T02:21:50;25.13;;;11.25;;
52942;SDS011;38809;53.300;6.614;2023-04-29T02:24:16;20.20;;;11.63;;
52942;SDS011;38809;53.300;6.614;2023-04-29T02:26:41;22.33;;;13.50;;
52942;SDS011;38809;53.300;6.614;2023-04-29T02:29:07;23.73;;;13.13;;
52942;SDS011;38809;53.300;6.614;2023-04-29T02:31:33;23.45;;;12.75;;
52942;SDS011;38809;53.300;6.614;2023-04-29T02:33:58;21.00;;;13.07;;
52942;SDS011;38809;53.300;6.614;2023-04-29T02:36:24;23.40;;;14.73;;
52942;SDS011;38809;53.300;6.614;2023-04-29T02:38:51;21.58;;;14.05;;
52942;SDS011;38809;53.300;6.614;2023-04-29T02:41:19;24.58;;;12.98;;
52942;SDS011;38809;53.300;6.614;2023-04-29T02:43:45;23.77;;;13.27;;
52942;SDS011;38809;53.300;6.614;2023-04-29T02:46:13;22.40;;;12.63;;
52942;SDS011;38809;53.300;6.614;2023-04-29T02:51:05;19.08;;;10.90;;
52942;SDS011;38809;53.300;6.614;2023-04-29T02:53:30;15.20;;;10.02;;
52942;SDS011;38809;53.300;6.614;2023-04-29T02:55:56;16.98;;;10.23;;
52942;SDS011;38809;53.300;6.614;2023-04-29T02:58:22;17.67;;;10.57;;
52942;SDS011;38809;53.300;6.614;2023-04-29T03:00:48;20.92;;;11.98;;
52942;SDS011;38809;53.300;6.614;2023-04-29T03:03:14;17.08;;;9.95;;
52942;SDS011;38809;53.300;6.614;2023-04-29T03:05:39;15.20;;;8.90;;
52942;SDS011;38809;53.300;6.614;2023-04-29T03:08:05;17.67;;;9.93;;
52942;SDS011;38809;53.300;6.614;2023-04-29T03:10:31;14.82;;;9.30;;
52942;SDS011;38809;53.300;6.614;2023-04-29T03:12:57;14.75;;;8.70;;
52942;SDS011;38809;53.300;6.614;2023-04-29T03:15:23;15.40;;;9.20;;
52942;SDS011;38809;53.300;6.614;2023-04-29T03:17:48;18.20;;;10.00;;
52942;SDS011;38809;53.300;6.614;2023-04-29T03:20:14;17.33;;;9.67;;
52942;SDS011;38809;53.300;6.614;2023-04-29T03:22:40;15.85;;;9.82;;
52942;SDS011;38809;53.300;6.614;2023-04-29T03:25:05;13.87;;;9.00;;
52942;SDS011;38809;53.300;6.614;2023-04-29T03:27:31;13.63;;;9.05;;
52942;SDS011;38809;53.300;6.614;2023-04-29T03:29:57;17.23;;;9.70;;
52942;SDS011;38809;53.300;6.614;2023-04-29T03:32:23;15.40;;;9.17;;
52942;SDS011;38809;53.300;6.614;2023-04-29T03:34:48;13.83;;;8.63;;
52942;SDS011;38809;53.300;6.614;2023-04-29T03:37:14;15.68;;;8.45;;
52942;SDS011;38809;53.300;6.614;2023-04-29T03:39:40;18.13;;;9.07;;
52942;SDS011;38809;53.300;6.614;2023-04-29T03:42:07;15.60;;;9.57;;
52942;SDS011;38809;53.300;6.614;2023-04-29T03:44:32;24.25;;;9.38;;
52942;SDS011;38809;53.300;6.614;2023-04-29T03:46:58;14.53;;;9.37;;
52942;SDS011;38809;53.300;6.614;2023-04-29T03:49:24;14.18;;;8.90;;
52942;SDS011;38809;53.300;6.614;2023-04-29T03:51:50;20.27;;;9.75;;
52942;SDS011;38809;53.300;6.614;2023-04-29T03:54:16;16.13;;;9.68;;
52942;SDS011;38809;53.300;6.614;2023-04-29T03:56:41;15.40;;;9.02;;
52942;SDS011;38809;53.300;6.614;2023-04-29T03:59:07;13.95;;;9.18;;
52942;SDS011;38809;53.300;6.614;2023-04-29T04:01:33;18.00;;;9.05;;
52942;SDS011;38809;53.300;6.614;2023-04-29T04:03:59;17.57;;;9.17;;
52942;SDS011;38809;53.300;6.614;2023-04-29T04:06:25;16.75;;;9.40;;
52942;SDS011;38809;53.300;6.614;2023-04-29T04:08:51;14.80;;;9.38;;
52942;SDS011;38809;53.300;6.614;2023-04-29T04:11:16;16.60;;;8.90;;
52942;SDS011;38809;53.300;6.614;2023-04-29T04:13:42;14.70;;;8.47;;
52942;SDS011;38809;53.300;6.614;2023-04-29T04:16:08;16.20;;;8.98;;
52942;SDS011;38809;53.300;6.614;2023-04-29T04:18:35;17.42;;;11.05;;
52942;SDS011;38809;53.300;6.614;2023-04-29T04:23:31;16.35;;;9.60;;
52942;SDS011;38809;53.300;6.614;2023-04-29T04:25:56;17.17;;;10.27;;
52942;SDS011;38809;53.300;6.614;2023-04-29T04:28:22;16.87;;;9.40;;
52942;SDS011;38809;53.300;6.614;2023-04-29T04:30:48;17.40;;;9.77;;
52942;SDS011;38809;53.300;6.614;2023-04-29T04:33:14;13.50;;;8.45;;
52942;SDS011;38809;53.300;6.614;2023-04-29T04:35:40;13.55;;;9.00;;
52942;SDS011;38809;53.300;6.614;2023-04-29T04:38:05;15.23;;;8.60;;
52942;SDS011;38809;53.300;6.614;2023-04-29T04:40:31;13.35;;;8.20;;
52942;SDS011;38809;53.300;6.614;2023-04-29T04:42:57;13.30;;;8.37;;
52942;SDS011;38809;53.300;6.614;2023-04-29T04:45:23;11.43;;;8.00;;
52942;SDS011;38809;53.300;6.614;2023-04-29T04:47:48;15.97;;;9.20;;
52942;SDS011;38809;53.300;6.614;2023-04-29T04:50:14;16.77;;;8.03;;
52942;SDS011;38809;53.300;6.614;2023-04-29T04:52:40;17.43;;;9.50;;
52942;SDS011;38809;53.300;6.614;2023-04-29T04:55:06;14.85;;;8.73;;
52942;SDS011;38809;53.300;6.614;2023-04-29T04:59:58;16.70;;;9.07;;
52942;SDS011;38809;53.300;6.614;2023-04-29T05:02:25;17.63;;;9.73;;
52942;SDS011;38809;53.300;6.614;2023-04-29T05:04:51;15.95;;;9.50;;
52942;SDS011;38809;53.300;6.614;2023-04-29T05:07:16;17.10;;;8.40;;
52942;SDS011;38809;53.300;6.614;2023-04-29T05:09:42;17.17;;;9.20;;
52942;SDS011;38809;53.300;6.614;2023-04-29T05:12:08;16.47;;;8.43;;
52942;SDS011;38809;53.300;6.614;2023-04-29T05:14:33;15.03;;;9.00;;
52942;SDS011;38809;53.300;6.614;2023-04-29T05:16:59;14.75;;;8.55;;
52942;SDS011;38809;53.300;6.614;2023-04-29T05:19:25;14.00;;;8.48;;
52942;SDS011;38809;53.300;6.614;2023-04-29T05:21:51;12.77;;;8.05;;
52942;SDS011;38809;53.300;6.614;2023-04-29T05:24:17;14.32;;;8.30;;
52942;SDS011;38809;53.300;6.614;2023-04-29T05:26:42;16.57;;;8.77;;
52942;SDS011;38809;53.300;6.614;2023-04-29T05:29:09;15.55;;;8.43;;
52942;SDS011;38809;53.300;6.614;2023-04-29T05:34:01;12.63;;;8.15;;
52942;SDS011;38809;53.300;6.614;2023-04-29T05:36:27;13.30;;;9.10;;
52942;SDS011;38809;53.300;6.614;2023-04-29T05:38:53;17.15;;;9.27;;
52942;SDS011;38809;53.300;6.614;2023-04-29T05:41:19;11.38;;;7.60;;
52942;SDS011;38809;53.300;6.614;2023-04-29T05:43:44;16.98;;;8.45;;
52942;SDS011;38809;53.300;6.614;2023-04-29T05:46:10;10.33;;;6.90;;
52942;SDS011;38809;53.300;6.614;2023-04-29T05:48:36;11.60;;;7.27;;
52942;SDS011;38809;53.300;6.614;2023-04-29T05:51:02;13.13;;;7.38;;
52942;SDS011;38809;53.300;6.614;2023-04-29T05:53:27;15.52;;;7.70;;
52942;SDS011;38809;53.300;6.614;2023-04-29T05:55:53;12.35;;;7.47;;
52942;SDS011;38809;53.300;6.614;2023-04-29T05:58:19;11.68;;;8.00;;
52942;SDS011;38809;53.300;6.614;2023-04-29T06:00:44;10.73;;;6.97;;
52942;SDS011;38809;53.300;6.614;2023-04-29T06:03:10;11.77;;;6.50;;
52942;SDS011;38809;53.300;6.614;2023-04-29T06:05:36;11.32;;;7.10;;
52942;SDS011;38809;53.300;6.614;2023-04-29T06:08:03;12.25;;;7.75;;
52942;SDS011;38809;53.300;6.614;2023-04-29T06:10:29;12.00;;;7.30;;
52942;SDS011;38809;53.300;6.614;2023-04-29T06:12:56;13.60;;;7.90;;
52942;SDS011;38809;53.300;6.614;2023-04-29T06:15:21;12.02;;;7.47;;
52942;SDS011;38809;53.300;6.614;2023-04-29T06:17:47;12.55;;;7.45;;
52942;SDS011;38809;53.300;6.614;2023-04-29T06:20:13;12.07;;;7.38;;
52942;SDS011;38809;53.300;6.614;2023-04-29T06:22:39;12.02;;;7.72;;
52942;SDS011;38809;53.300;6.614;2023-04-29T06:25:04;12.32;;;7.82;;
52942;SDS011;38809;53.300;6.614;2023-04-29T06:27:30;9.23;;;6.78;;
52942;SDS011;38809;53.300;6.614;2023-04-29T06:29:56;9.15;;;6.35;;
52942;SDS011;38809;53.300;6.614;2023-04-29T06:32:22;11.63;;;7.30;;
52942;SDS011;38809;53.300;6.614;2023-04-29T06:34:48;11.40;;;6.80;;
52942;SDS011;38809;53.300;6.614;2023-04-29T06:37:15;10.18;;;6.28;;
52942;SDS011;38809;53.300;6.614;2023-04-29T06:39:40;13.30;;;6.38;;
52942;SDS011;38809;53.300;6.614;2023-04-29T06:42:06;10.45;;;6.63;;
52942;SDS011;38809;53.300;6.614;2023-04-29T06:44:32;12.60;;;6.30;;
52942;SDS011;38809;53.300;6.614;2023-04-29T06:46:58;11.10;;;6.80;;
52942;SDS011;38809;53.300;6.614;2023-04-29T06:49:24;8.75;;;6.15;;
52942;SDS011;38809;53.300;6.614;2023-04-29T06:51:49;11.77;;;6.30;;
52942;SDS011;38809;53.300;6.614;2023-04-29T06:54:15;11.00;;;5.65;;
52942;SDS011;38809;53.300;6.614;2023-04-29T06:56:41;11.60;;;6.37;;
52942;SDS011;38809;53.300;6.614;2023-04-29T06:59:06;12.35;;;5.38;;
52942;SDS011;38809;53.300;6.614;2023-04-29T07:01:32;9.52;;;5.68;;
52942;SDS011;38809;53.300;6.614;2023-04-29T07:03:58;8.13;;;5.03;;
52942;SDS011;38809;53.300;6.614;2023-04-29T07:06:24;10.52;;;5.18;;
52942;SDS011;38809;53.300;6.614;2023-04-29T07:08:50;8.67;;;5.17;;
52942;SDS011;38809;53.300;6.614;2023-04-29T07:11:16;11.27;;;5.13;;
52942;SDS011;38809;53.300;6.614;2023-04-29T07:13:42;8.82;;;5.18;;
52942;SDS011;38809;53.300;6.614;2023-04-29T07:16:16;9.13;;;5.47;;
52942;SDS011;38809;53.300;6.614;2023-04-29T07:18:44;11.30;;;5.20;;
52942;SDS011;38809;53.300;6.614;2023-04-29T07:21:10;9.00;;;5.03;;
52942;SDS011;38809;53.300;6.614;2023-04-29T07:23:36;8.65;;;4.63;;
52942;SDS011;38809;53.300;6.614;2023-04-29T07:26:08;7.60;;;4.07;;
52942;SDS011;38809;53.300;6.614;2023-04-29T07:28:34;7.43;;;4.53;;
52942;SDS011;38809;53.300;6.614;2023-04-29T07:31:00;9.00;;;5.18;;
52942;SDS011;38809;53.300;6.614;2023-04-29T07:33:26;11.13;;;4.53;;
52942;SDS011;38809;53.300;6.614;2023-04-29T07:35:51;8.17;;;4.90;;
52942;SDS011;38809;53.300;6.614;2023-04-29T07:38:17;10.07;;;5.07;;
52942;SDS011;38809;53.300;6.614;2023-04-29T07:40:43;9.63;;;4.43;;
52942;SDS011;38809;53.300;6.614;2023-04-29T07:43:09;8.88;;;4.63;;
52942;SDS011;38809;53.300;6.614;2023-04-29T07:45:34;7.38;;;4.47;;
52942;SDS011;38809;53.300;6.614;2023-04-29T07:48:00;10.48;;;5.05;;
52942;SDS011;38809;53.300;6.614;2023-04-29T07:50:26;8.88;;;4.72;;
52942;SDS011;38809;53.300;6.614;2023-04-29T07:52:52;11.73;;;5.05;;
52942;SDS011;38809;53.300;6.614;2023-04-29T07:55:19;8.90;;;5.07;;
52942;SDS011;38809;53.300;6.614;2023-04-29T07:57:45;7.72;;;4.65;;
52942;SDS011;38809;53.300;6.614;2023-04-29T08:00:10;7.28;;;4.20;;
52942;SDS011;38809;53.300;6.614;2023-04-29T08:02:36;8.65;;;4.85;;
52942;SDS011;38809;53.300;6.614;2023-04-29T08:05:02;7.05;;;4.47;;
52942;SDS011;38809;53.300;6.614;2023-04-29T08:07:28;9.77;;;4.22;;
52942;SDS011;38809;53.300;6.614;2023-04-29T08:09:54;11.23;;;5.60;;
52942;SDS011;38809;53.300;6.614;2023-04-29T08:12:19;5.73;;;4.13;;
52942;SDS011;38809;53.300;6.614;2023-04-29T08:14:45;8.65;;;5.18;;
52942;SDS011;38809;53.300;6.614;2023-04-29T08:17:11;8.38;;;4.05;;
52942;SDS011;38809;53.300;6.614;2023-04-29T08:19:36;8.77;;;4.22;;
52942;SDS011;38809;53.300;6.614;2023-04-29T08:22:02;9.43;;;4.35;;
52942;SDS011;38809;53.300;6.614;2023-04-29T08:24:28;11.73;;;4.72;;
52942;SDS011;38809;53.300;6.614;2023-04-29T08:26:54;9.10;;;4.72;;
52942;SDS011;38809;53.300;6.614;2023-04-29T08:29:20;9.38;;;4.20;;
52942;SDS011;38809;53.300;6.614;2023-04-29T08:31:45;8.85;;;4.35;;
52942;SDS011;38809;53.300;6.614;2023-04-29T08:34:11;6.30;;;3.33;;
52942;SDS011;38809;53.300;6.614;2023-04-29T08:36:37;7.47;;;3.05;;
52942;SDS011;38809;53.300;6.614;2023-04-29T08:39:03;7.40;;;3.58;;
52942;SDS011;38809;53.300;6.614;2023-04-29T08:41:30;6.03;;;2.85;;
52942;SDS011;38809;53.300;6.614;2023-04-29T08:43:58;4.45;;;2.95;;
52942;SDS011;38809;53.300;6.614;2023-04-29T08:46:25;7.32;;;2.45;;
52942;SDS011;38809;53.300;6.614;2023-04-29T08:51:17;6.53;;;2.40;;
52942;SDS011;38809;53.300;6.614;2023-04-29T08:53:43;4.57;;;2.55;;
52942;SDS011;38809;53.300;6.614;2023-04-29T08:56:12;5.93;;;2.22;;
52942;SDS011;38809;53.300;6.614;2023-04-29T08:58:45;5.15;;;2.60;;
52942;SDS011;38809;53.300;6.614;2023-04-29T09:01:13;7.90;;;2.90;;
52942;SDS011;38809;53.300;6.614;2023-04-29T09:03:43;7.32;;;2.70;;
52942;SDS011;38809;53.300;6.614;2023-04-29T09:06:14;6.32;;;2.63;;
52942;SDS011;38809;53.300;6.614;2023-04-29T09:08:40;5.57;;;2.33;;
52942;SDS011;38809;53.300;6.614;2023-04-29T09:11:09;6.65;;;3.00;;
52942;SDS011;38809;53.300;6.614;2023-04-29T09:13:36;7.50;;;2.33;;
52942;SDS011;38809;53.300;6.614;2023-04-29T09:16:02;5.28;;;2.22;;
52942;SDS011;38809;53.300;6.614;2023-04-29T09:18:43;6.45;;;3.13;;
52942;SDS011;38809;53.300;6.614;2023-04-29T09:21:12;6.03;;;2.47;;
52942;SDS011;38809;53.300;6.614;2023-04-29T09:23:39;5.20;;;2.60;;
52942;SDS011;38809;53.300;6.614;2023-04-29T09:26:05;3.95;;;2.33;;
52942;SDS011;38809;53.300;6.614;2023-04-29T09:28:31;4.93;;;3.00;;
52942;SDS011;38809;53.300;6.614;2023-04-29T09:30:57;4.65;;;2.88;;
52942;SDS011;38809;53.300;6.614;2023-04-29T09:33:23;4.60;;;2.60;;
52942;SDS011;38809;53.300;6.614;2023-04-29T09:35:52;7.32;;;2.80;;
52942;SDS011;38809;53.300;6.614;2023-04-29T09:38:18;6.55;;;3.40;;
52942;SDS011;38809;53.300;6.614;2023-04-29T09:40:45;9.75;;;3.80;;
52942;SDS011;38809;53.300;6.614;2023-04-29T09:43:12;8.35;;;3.70;;
52942;SDS011;38809;53.300;6.614;2023-04-29T09:45:39;6.18;;;3.42;;
52942;SDS011;38809;53.300;6.614;2023-04-29T09:48:07;8.70;;;4.25;;
52942;SDS011;38809;53.300;6.614;2023-04-29T09:50:35;7.22;;;3.58;;
52942;SDS011;38809;53.300;6.614;2023-04-29T09:53:01;6.25;;;3.78;;
52942;SDS011;38809;53.300;6.614;2023-04-29T09:55:28;8.77;;;3.95;;
52942;SDS011;38809;53.300;6.614;2023-04-29T09:57:54;6.20;;;3.55;;
52942;SDS011;38809;53.300;6.614;2023-04-29T10:00:20;7.50;;;3.63;;
52942;SDS011;38809;53.300;6.614;2023-04-29T10:02:47;7.25;;;3.28;;
52942;SDS011;38809;53.300;6.614;2023-04-29T10:05:14;7.38;;;3.67;;
52942;SDS011;38809;53.300;6.614;2023-04-29T10:07:40;9.52;;;3.70;;
52942;SDS011;38809;53.300;6.614;2023-04-29T10:12:34;4.90;;;2.55;;
52942;SDS011;38809;53.300;6.614;2023-04-29T10:17:48;4.88;;;2.67;;
52942;SDS011;38809;53.300;6.614;2023-04-29T10:20:22;5.47;;;2.70;;
52942;SDS011;38809;53.300;6.614;2023-04-29T10:22:49;4.57;;;2.20;;
52942;SDS011;38809;53.300;6.614;2023-04-29T10:25:20;5.90;;;2.30;;
52942;SDS011;38809;53.300;6.614;2023-04-29T10:27:47;4.95;;;2.10;;
52942;SDS011;38809;53.300;6.614;2023-04-29T10:30:16;2.88;;;1.60;;
52942;SDS011;38809;53.300;6.614;2023-04-29T10:32:43;3.83;;;1.80;;
52942;SDS011;38809;53.300;6.614;2023-04-29T10:35:12;4.95;;;2.17;;
52942;SDS011;38809;53.300;6.614;2023-04-29T10:37:45;3.15;;;1.88;;
52942;SDS011;38809;53.300;6.614;2023-04-29T10:40:28;4.47;;;1.42;;
52942;SDS011;38809;53.300;6.614;2023-04-29T10:43:00;3.60;;;1.33;;
52942;SDS011;38809;53.300;6.614;2023-04-29T10:53:17;3.28;;;1.23;;
52942;SDS011;38809;53.300;6.614;2023-04-29T10:55:46;5.03;;;1.67;;
52942;SDS011;38809;53.300;6.614;2023-04-29T11:03:55;4.10;;;1.60;;
52942;SDS011;38809;53.300;6.614;2023-04-29T11:06:49;3.42;;;1.80;;
52942;SDS011;38809;53.300;6.614;2023-04-29T11:09:31;4.28;;;1.92;;
52942;SDS011;38809;53.300;6.614;2023-04-29T11:12:01;4.57;;;1.75;;
52942;SDS011;38809;53.300;6.614;2023-04-29T11:17:08;5.25;;;2.15;;
52942;SDS011;38809;53.300;6.614;2023-04-29T11:22:31;6.47;;;2.15;;
52942;SDS011;38809;53.300;6.614;2023-04-29T11:27:37;3.45;;;2.03;;
52942;SDS011;38809;53.300;6.614;2023-04-29T11:30:04;7.65;;;2.38;;
52942;SDS011;38809;53.300;6.614;2023-04-29T11:32:35;5.47;;;1.88;;
52942;SDS011;38809;53.300;6.614;2023-04-29T11:35:06;5.85;;;2.13;;
52942;SDS011;38809;53.300;6.614;2023-04-29T11:37:32;4.47;;;1.73;;
52942;SDS011;38809;53.300;6.614;2023-04-29T11:39:58;3.58;;;2.00;;
52942;SDS011;38809;53.300;6.614;2023-04-29T11:42:25;5.65;;;1.85;;
52942;SDS011;38809;53.300;6.614;2023-04-29T11:44:52;3.55;;;2.05;;
52942;SDS011;38809;53.300;6.614;2023-04-29T11:47:20;4.57;;;1.70;;
52942;SDS011;38809;53.300;6.614;2023-04-29T11:50:00;3.28;;;1.58;;
52942;SDS011;38809;53.300;6.614;2023-04-29T11:52:27;3.47;;;1.67;;
52942;SDS011;38809;53.300;6.614;2023-04-29T11:54:53;4.13;;;1.58;;
52942;SDS011;38809;53.300;6.614;2023-04-29T11:57:19;3.50;;;1.50;;
52942;SDS011;38809;53.300;6.614;2023-04-29T11:59:45;2.58;;;1.27;;
52942;SDS011;38809;53.300;6.614;2023-04-29T12:02:11;3.90;;;1.20;;
52942;SDS011;38809;53.300;6.614;2023-04-29T12:04:47;3.83;;;1.38;;
52942;SDS011;38809;53.300;6.614;2023-04-29T12:07:15;3.50;;;1.60;;
52942;SDS011;38809;53.300;6.614;2023-04-29T12:09:44;2.55;;;1.23;;
52942;SDS011;38809;53.300;6.614;2023-04-29T12:12:12;3.25;;;1.70;;
52942;SDS011;38809;53.300;6.614;2023-04-29T12:14:39;4.53;;;1.70;;
52942;SDS011;38809;53.300;6.614;2023-04-29T12:17:06;2.28;;;1.67;;
52942;SDS011;38809;53.300;6.614;2023-04-29T12:19:33;2.95;;;1.40;;
52942;SDS011;38809;53.300;6.614;2023-04-29T12:22:03;3.60;;;1.33;;
52942;SDS011;38809;53.300;6.614;2023-04-29T12:24:32;2.20;;;1.52;;
52942;SDS011;38809;53.300;6.614;2023-04-29T12:27:02;2.72;;;1.33;;
52942;SDS011;38809;53.300;6.614;2023-04-29T12:29:30;3.10;;;1.42;;
52942;SDS011;38809;53.300;6.614;2023-04-29T12:31:57;2.97;;;1.27;;
52942;SDS011;38809;53.300;6.614;2023-04-29T12:34:29;2.97;;;1.30;;
52942;SDS011;38809;53.300;6.614;2023-04-29T12:36:56;3.10;;;1.50;;
52942;SDS011;38809;53.300;6.614;2023-04-29T12:39:24;2.55;;;1.50;;
52942;SDS011;38809;53.300;6.614;2023-04-29T12:41:53;2.58;;;1.25;;
52942;SDS011;38809;53.300;6.614;2023-04-29T12:44:22;2.15;;;1.52;;
52942;SDS011;38809;53.300;6.614;2023-04-29T12:46:47;4.97;;;1.88;;
52942;SDS011;38809;53.300;6.614;2023-04-29T12:49:13;3.63;;;1.98;;
52942;SDS011;38809;53.300;6.614;2023-04-29T12:51:42;4.03;;;2.03;;
52942;SDS011;38809;53.300;6.614;2023-04-29T12:54:08;5.03;;;2.25;;
52942;SDS011;38809;53.300;6.614;2023-04-29T12:56:34;4.28;;;2.40;;
52942;SDS011;38809;53.300;6.614;2023-04-29T12:59:04;4.55;;;2.55;;
52942;SDS011;38809;53.300;6.614;2023-04-29T13:01:31;4.20;;;2.22;;
52942;SDS011;38809;53.300;6.614;2023-04-29T13:03:57;3.85;;;2.08;;
52942;SDS011;38809;53.300;6.614;2023-04-29T13:06:23;4.63;;;2.72;;
52942;SDS011;38809;53.300;6.614;2023-04-29T13:08:48;3.85;;;2.30;;
52942;SDS011;38809;53.300;6.614;2023-04-29T13:11:15;5.15;;;2.63;;
52942;SDS011;38809;53.300;6.614;2023-04-29T13:13:41;4.20;;;2.10;;
52942;SDS011;38809;53.300;6.614;2023-04-29T13:16:07;5.70;;;2.55;;
52942;SDS011;38809;53.300;6.614;2023-04-29T13:18:33;5.93;;;2.65;;
52942;SDS011;38809;53.300;6.614;2023-04-29T13:21:00;4.25;;;2.88;;
52942;SDS011;38809;53.300;6.614;2023-04-29T13:23:25;7.70;;;3.83;;
52942;SDS011;38809;53.300;6.614;2023-04-29T13:25:51;5.50;;;3.38;;
52942;SDS011;38809;53.300;6.614;2023-04-29T13:28:17;13.27;;;3.30;;
52942;SDS011;38809;53.300;6.614;2023-04-29T13:30:43;5.80;;;3.85;;
52942;SDS011;38809;53.300;6.614;2023-04-29T13:33:08;6.35;;;3.75;;
52942;SDS011;38809;53.300;6.614;2023-04-29T13:35:34;4.72;;;3.15;;
52942;SDS011;38809;53.300;6.614;2023-04-29T13:38:02;6.90;;;2.85;;
52942;SDS011;38809;53.300;6.614;2023-04-29T13:40:28;6.53;;;3.17;;
52942;SDS011;38809;53.300;6.614;2023-04-29T13:42:53;5.70;;;2.95;;
52942;SDS011;38809;53.300;6.614;2023-04-29T13:45:19;5.00;;;3.03;;
52942;SDS011;38809;53.300;6.614;2023-04-29T13:47:45;7.05;;;3.28;;
52942;SDS011;38809;53.300;6.614;2023-04-29T13:50:11;5.47;;;3.47;;
52942;SDS011;38809;53.300;6.614;2023-04-29T13:52:37;4.97;;;2.92;;
52942;SDS011;38809;53.300;6.614;2023-04-29T13:55:03;9.32;;;2.75;;
52942;SDS011;38809;53.300;6.614;2023-04-29T13:57:29;7.38;;;3.58;;
52942;SDS011;38809;53.300;6.614;2023-04-29T13:59:54;5.93;;;3.17;;
52942;SDS011;38809;53.300;6.614;2023-04-29T14:02:20;4.18;;;2.85;;
52942;SDS011;38809;53.300;6.614;2023-04-29T14:04:46;7.95;;;3.28;;
52942;SDS011;38809;53.300;6.614;2023-04-29T14:07:12;6.43;;;3.22;;
52942;SDS011;38809;53.300;6.614;2023-04-29T14:09:38;5.75;;;3.60;;
52942;SDS011;38809;53.300;6.614;2023-04-29T14:14:30;5.63;;;3.30;;
52942;SDS011;38809;53.300;6.614;2023-04-29T14:16:56;4.90;;;2.95;;
52942;SDS011;38809;53.300;6.614;2023-04-29T14:19:22;5.25;;;2.70;;
52942;SDS011;38809;53.300;6.614;2023-04-29T14:21:48;6.63;;;3.05;;
52942;SDS011;38809;53.300;6.614;2023-04-29T14:24:13;4.47;;;2.60;;
52942;SDS011;38809;53.300;6.614;2023-04-29T14:26:39;5.45;;;2.70;;
52942;SDS011;38809;53.300;6.614;2023-04-29T14:29:06;3.63;;;2.20;;
52942;SDS011;38809;53.300;6.614;2023-04-29T14:31:34;3.67;;;1.83;;
52942;SDS011;38809;53.300;6.614;2023-04-29T14:34:03;5.32;;;1.77;;
52942;SDS011;38809;53.300;6.614;2023-04-29T14:36:30;2.40;;;1.60;;
52942;SDS011;38809;53.300;6.614;2023-04-29T14:38:58;2.33;;;1.48;;
52942;SDS011;38809;53.300;6.614;2023-04-29T14:41:25;7.47;;;2.05;;
52942;SDS011;38809;53.300;6.614;2023-04-29T14:43:51;2.60;;;1.55;;
52942;SDS011;38809;53.300;6.614;2023-04-29T14:46:17;3.42;;;1.88;;
52942;SDS011;38809;53.300;6.614;2023-04-29T14:48:42;4.00;;;2.42;;
52942;SDS011;38809;53.300;6.614;2023-04-29T14:51:08;4.00;;;2.35;;
52942;SDS011;38809;53.300;6.614;2023-04-29T14:53:34;2.85;;;1.67;;
52942;SDS011;38809;53.300;6.614;2023-04-29T14:56:01;3.15;;;1.70;;
52942;SDS011;38809;53.300;6.614;2023-04-29T14:58:28;2.72;;;1.90;;
52942;SDS011;38809;53.300;6.614;2023-04-29T15:00:53;2.70;;;1.77;;
52942;SDS011;38809;53.300;6.614;2023-04-29T15:05:46;3.08;;;1.70;;
52942;SDS011;38809;53.300;6.614;2023-04-29T15:08:13;2.83;;;1.95;;
52942;SDS011;38809;53.300;6.614;2023-04-29T15:10:39;6.90;;;2.22;;
52942;SDS011;38809;53.300;6.614;2023-04-29T15:13:05;3.22;;;1.98;;
52942;SDS011;38809;53.300;6.614;2023-04-29T15:15:31;3.23;;;1.67;;
52942;SDS011;38809;53.300;6.614;2023-04-29T15:17:56;4.23;;;2.23;;
52942;SDS011;38809;53.300;6.614;2023-04-29T15:20:22;2.67;;;1.63;;
52942;SDS011;38809;53.300;6.614;2023-04-29T15:22:48;3.58;;;1.70;;
52942;SDS011;38809;53.300;6.614;2023-04-29T15:25:14;3.20;;;2.13;;
52942;SDS011;38809;53.300;6.614;2023-04-29T15:27:40;2.60;;;1.98;;
52942;SDS011;38809;53.300;6.614;2023-04-29T15:30:06;2.90;;;1.63;;
52942;SDS011;38809;53.300;6.614;2023-04-29T15:32:32;2.70;;;1.75;;